Time;durP1;ratioP1;P1;durP2;ratioP2;P2;SDS_P1;SDS_P2;PMS_P1;PMS_P2;Temp;Humidity;BMP_temperature;BMP_pressure;BME280_temperature;BME280_humidity;BME280_pressure;Samples;Min_cycle;Max_cycle;Signal;HPM_P1;HPM_P2
2022/06/14 00:02:05;;;;;;;8.10;1.92;;;;;;;-147.53;100.00;57128.34;10314957;28;20749;-73
2022/06/14 00:07:08;;;;;;;10.38;2.40;;;;;;;-147.53;100.00;57128.34;10347830;28;20034;-73
2022/06/14 00:12:09;;;;;;;10.57;2.15;;;;;;;-147.53;100.00;57128.34;10336221;28;20050;-73
2022/06/14 00:17:11;;;;;;;8.82;2.30;;;;;;;-147.53;100.00;57128.34;10341263;28;20053;-73
2022/06/14 00:22:14;;;;;;;9.00;2.03;;;;;;;-147.53;100.00;57128.34;10326710;28;20050;-74
2022/06/14 00:27:15;;;;;;;7.38;1.90;;;;;;;-147.53;100.00;57128.34;10330609;28;20053;-73
2022/06/14 00:32:17;;;;;;;10.93;2.30;;;;;;;-147.53;100.00;57128.34;10340115;28;20046;-73
2022/06/14 00:37:19;;;;;;;9.35;2.95;;;;;;;-147.53;100.00;57128.34;10337259;28;20142;-73
2022/06/14 00:42:22;;;;;;;9.00;2.47;;;;;;;-147.53;100.00;57128.34;10334966;28;20057;-74
2022/06/14 00:47:24;;;;;;;10.88;2.60;;;;;;;-147.53;100.00;57128.34;10328611;28;20713;-73
2022/06/14 00:52:39;;;;;;;14.07;3.05;;;;;;;-147.53;100.00;57128.34;10315806;28;20046;-72
2022/06/14 00:57:57;;;;;;;10.77;2.45;;;;;;;-147.53;100.00;57128.34;10309086;28;20057;-72
2022/06/14 01:03:03;;;;;;;10.00;2.83;;;;;;;-147.53;100.00;57128.34;10334099;28;20042;-73
2022/06/14 01:08:06;;;;;;;8.57;2.40;;;;;;;-147.53;100.00;57128.34;10346321;28;20679;-73
2022/06/14 01:13:08;;;;;;;8.38;2.80;;;;;;;-147.53;100.00;57128.34;10338584;28;20045;-73
2022/06/14 01:18:12;;;;;;;10.05;2.60;;;;;;;-147.53;100.00;57128.34;10339586;28;20045;-73
2022/06/14 01:23:16;;;;;;;13.00;3.00;;;;;;;-147.53;100.00;57128.34;10342555;28;20064;-74
2022/06/14 01:28:21;;;;;;;9.80;4.28;;;;;;;-147.53;100.00;57128.34;10334054;28;20042;-73
2022/06/14 01:33:51;;;;;;;8.15;3.28;;;;;;;-147.53;100.00;57128.34;10337863;28;20646;-73
2022/06/14 01:38:54;;;;;;;10.48;3.50;;;;;;;-147.53;100.00;57128.34;10323934;28;20062;-73
2022/06/14 01:44:14;;;;;;;10.50;3.05;;;;;;;-147.53;100.00;57128.34;10345268;28;20065;-74
2022/06/14 01:55:18;;;;;;;12.90;3.30;;;;;;;-147.53;100.00;57128.34;10318188;28;20054;-73
2022/06/14 02:00:28;;;;;;;11.65;3.20;;;;;;;-147.53;100.00;57128.34;10347226;28;20053;-73
2022/06/14 02:05:32;;;;;;;7.38;3.22;;;;;;;-147.53;100.00;57128.34;10344446;28;20048;-73
2022/06/14 02:10:53;;;;;;;8.60;2.88;;;;;;;-147.53;100.00;57128.34;10338037;28;20438;-72
2022/06/14 02:16:07;;;;;;;13.02;2.88;;;;;;;-147.53;100.00;57128.34;10336192;28;20045;-73
2022/06/14 02:21:35;;;;;;;8.35;3.38;;;;;;;-147.53;100.00;57128.34;10324490;28;20054;-72
2022/06/14 02:26:41;;;;;;;10.93;3.25;;;;;;;-147.53;100.00;57128.34;10330309;28;20108;-73
2022/06/14 02:31:53;;;;;;;13.20;3.50;;;;;;;-147.53;100.00;57128.34;10342558;28;20052;-73
2022/06/14 02:37:09;;;;;;;8.63;3.10;;;;;;;-147.53;100.00;57128.34;10346917;28;20053;-73
2022/06/14 02:42:20;;;;;;;8.63;2.70;;;;;;;-147.53;100.00;57128.34;10322599;28;20129;-73
2022/06/14 02:47:24;;;;;;;7.57;2.63;;;;;;;-147.53;100.00;57128.34;10329223;28;20053;-73
2022/06/14 02:52:36;;;;;;;8.13;2.50;;;;;;;-147.53;100.00;57128.34;10331768;28;20134;-73
2022/06/14 02:57:57;;;;;;;9.30;3.30;;;;;;;-147.53;100.00;57128.34;10342123;28;20056;-73
2022/06/14 03:03:22;;;;;;;10.00;3.70;;;;;;;-147.53;100.00;57128.34;10304958;28;20055;-73
2022/06/14 03:08:30;;;;;;;14.52;3.40;;;;;;;-147.53;100.00;57128.34;10346087;28;20054;-73
2022/06/14 03:13:58;;;;;;;13.70;4.18;;;;;;;-147.53;100.00;57128.34;10341525;28;20100;-73
2022/06/14 03:19:17;;;;;;;7.80;3.53;;;;;;;-147.53;100.00;57128.34;10329065;28;20417;-72
2022/06/14 03:24:34;;;;;;;8.25;3.65;;;;;;;-147.53;100.00;57128.34;10321571;28;20042;-73
2022/06/14 03:30:04;;;;;;;13.93;3.78;;;;;;;-147.53;100.00;57128.34;10329812;28;20563;-73
2022/06/14 03:35:11;;;;;;;10.37;3.60;;;;;;;-147.53;100.00;57128.34;10328436;28;20547;-72
2022/06/14 03:40:18;;;;;;;13.63;3.88;;;;;;;-147.53;100.00;57128.34;10314318;28;20391;-74
2022/06/14 03:45:32;;;;;;;8.98;3.53;;;;;;;-147.53;100.00;57128.34;10314490;28;20065;-73
2022/06/14 03:50:45;;;;;;;13.48;4.00;;;;;;;-147.53;100.00;57128.34;10313613;28;20764;-73
2022/06/14 03:56:14;;;;;;;12.15;4.30;;;;;;;-147.53;100.00;57128.34;10332595;28;20042;-73
2022/06/14 04:01:21;;;;;;;16.40;3.65;;;;;;;-147.53;100.00;57128.34;10305776;28;20391;-74
2022/06/14 04:06:47;;;;;;;11.30;4.07;;;;;;;-147.53;100.00;57128.34;10332271;28;20048;-74
2022/06/14 04:12:00;;;;;;;11.38;3.97;;;;;;;-147.53;100.00;57128.34;10337099;28;20145;-74
2022/06/14 04:17:23;;;;;;;12.45;3.75;;;;;;;-147.53;100.00;57128.34;10334688;28;20568;-74
2022/06/14 04:22:51;;;;;;;17.10;3.60;;;;;;;-147.53;100.00;57128.34;10337131;28;20121;-74
2022/06/14 04:28:07;;;;;;;16.42;4.50;;;;;;;-147.53;100.00;57128.34;10331044;28;20049;-74
2022/06/14 04:33:23;;;;;;;22.35;4.22;;;;;;;-147.53;100.00;57128.34;10332633;28;20046;-74
2022/06/14 04:38:34;;;;;;;11.23;3.63;;;;;;;-147.53;100.00;57128.34;10319258;28;20069;-74
2022/06/14 04:43:41;;;;;;;17.30;4.25;;;;;;;-147.53;100.00;57128.34;10345937;28;20042;-74
2022/06/14 04:48:49;;;;;;;13.50;4.45;;;;;;;-147.53;100.00;57128.34;10333491;28;20452;-73
2022/06/14 04:54:16;;;;;;;12.63;3.47;;;;;;;-147.53;100.00;57128.34;10335322;28;20039;-74
2022/06/14 04:59:49;;;;;;;17.35;3.78;;;;;;;-147.53;100.00;57128.34;10344873;28;20088;-74
2022/06/14 05:04:58;;;;;;;11.95;3.58;;;;;;;-147.53;100.00;57128.34;10338147;28;20045;-74
2022/06/14 05:10:02;;;;;;;16.98;3.83;;;;;;;-147.53;100.00;57128.34;10344718;28;20064;-73
2022/06/14 05:15:17;;;;;;;13.75;3.05;;;;;;;-147.53;100.00;57128.34;10321335;28;20061;-76
2022/06/14 05:20:25;;;;;;;12.73;3.63;;;;;;;-147.53;100.00;57128.34;10324130;28;20121;-76
2022/06/14 05:25:39;;;;;;;12.77;3.63;;;;;;;-147.53;100.00;57128.34;10330887;28;20057;-75
2022/06/14 05:31:14;;;;;;;9.93;3.28;;;;;;;-147.53;100.00;57128.34;10318665;28;20046;-75
2022/06/14 05:36:25;;;;;;;16.85;3.70;;;;;;;-147.53;100.00;57128.34;10332397;28;20038;-76
2022/06/14 05:41:43;;;;;;;13.77;4.00;;;;;;;-147.53;100.00;57128.34;10319380;28;20084;-75
2022/06/14 05:46:50;;;;;;;21.52;4.47;;;;;;;-147.53;100.00;57128.34;10336096;28;20056;-73
2022/06/14 05:51:56;;;;;;;15.68;4.82;;;;;;;-147.53;100.00;57128.34;10344223;28;20045;-75
2022/06/14 05:57:13;;;;;;;16.40;3.88;;;;;;;-147.53;100.00;57128.34;10338946;28;20046;-74
2022/06/14 06:02:23;;;;;;;14.75;3.53;;;;;;;-147.53;100.00;57128.34;10337258;28;20650;-75
2022/06/14 06:07:31;;;;;;;15.73;3.22;;;;;;;-147.53;100.00;57128.34;10337564;28;20708;-74
2022/06/14 06:12:42;;;;;;;11.63;3.35;;;;;;;-147.53;100.00;57128.34;10337014;28;20046;-75
2022/06/14 06:17:55;;;;;;;14.20;3.60;;;;;;;-147.53;100.00;57128.34;10338920;28;20687;-76
2022/06/14 06:23:12;;;;;;;13.90;3.05;;;;;;;-147.53;100.00;57128.34;10329764;28;20054;-74
2022/06/14 06:28:22;;;;;;;10.18;3.20;;;;;;;-147.53;100.00;57128.34;10329196;28;20116;-74
2022/06/14 06:33:26;;;;;;;10.05;2.72;;;;;;;-147.53;100.00;57128.34;10328564;28;20057;-75
2022/06/14 06:38:36;;;;;;;12.70;2.92;;;;;;;-147.53;100.00;57128.34;10335307;28;20538;-75
2022/06/14 06:43:40;;;;;;;14.27;3.50;;;;;;;-147.53;100.00;57128.34;10348814;28;20546;-77
2022/06/14 06:48:47;;;;;;;10.55;2.92;;;;;;;-147.53;100.00;57128.34;10343397;28;20133;-76
2022/06/14 06:54:08;;;;;;;12.27;2.10;;;;;;;-147.53;100.00;57128.34;10333237;28;20046;-76
2022/06/14 06:59:29;;;;;;;10.70;2.33;;;;;;;-147.53;100.00;57128.34;10336053;28;20077;-76
2022/06/14 07:10:30;;;;;;;15.10;2.15;;;;;;;-147.53;100.00;57128.34;10325681;28;20502;-76
2022/06/14 07:15:40;;;;;;;8.73;1.50;;;;;;;-147.53;100.00;57128.34;10343992;28;20451;-76
2022/06/14 07:21:12;;;;;;;12.00;1.75;;;;;;;-147.53;100.00;57128.34;10343119;28;20137;-76
2022/06/14 07:26:31;;;;;;;16.17;2.45;;;;;;;-147.53;100.00;57128.34;10344417;28;20033;-76
2022/06/14 07:31:46;;;;;;;13.70;2.23;;;;;;;-147.53;100.00;57128.34;10340674;28;20037;-76
2022/06/14 07:36:58;;;;;;;11.10;1.60;;;;;;;-147.53;100.00;57128.34;10357137;28;20053;-76
2022/06/14 07:42:27;;;;;;;8.50;1.65;;;;;;;-147.53;100.00;57128.34;10334688;28;20382;-74
2022/06/14 07:47:56;;;;;;;8.80;1.50;;;;;;;-147.53;100.00;57128.34;10349592;28;20412;-74
2022/06/14 07:53:06;;;;;;;8.83;2.57;;;;;;;-147.53;100.00;57128.34;10349141;28;20070;-79
2022/06/14 07:58:17;;;;;;;10.25;1.70;;;;;;;-147.53;100.00;57128.34;10344320;28;20054;-76
2022/06/14 08:03:31;;;;;;;9.85;1.90;;;;;;;-147.53;100.00;57128.34;10349070;28;20048;-74
2022/06/14 08:08:38;;;;;;;9.43;1.70;;;;;;;-147.53;100.00;57128.34;10343459;28;20045;-73
2022/06/14 08:13:50;;;;;;;13.20;2.13;;;;;;;-147.53;100.00;57128.34;10336594;28;20050;-74
2022/06/14 08:19:04;;;;;;;26.08;1.83;;;;;;;-147.53;100.00;57128.34;10333027;28;20391;-72
2022/06/14 08:24:13;;;;;;;12.38;2.20;;;;;;;-147.53;100.00;57128.34;10323615;28;20149;-74
2022/06/14 08:29:36;;;;;;;9.93;2.47;;;;;;;-147.53;100.00;57128.34;10348533;28;20054;-73
2022/06/14 08:34:45;;;;;;;9.98;2.08;;;;;;;-147.53;100.00;57128.34;10344899;28;20077;-74
2022/06/14 08:39:52;;;;;;;13.68;3.28;;;;;;;-147.53;100.00;57128.34;10348234;28;20464;-73
2022/06/14 08:45:03;;;;;;;12.52;1.63;;;;;;;-147.53;100.00;57128.34;10335785;28;20528;-74
2022/06/14 08:50:29;;;;;;;9.38;1.80;;;;;;;-147.53;100.00;57128.34;10354437;28;20132;-74
2022/06/14 08:55:55;;;;;;;6.80;1.33;;;;;;;-147.53;100.00;57128.34;10323084;28;20054;-75
2022/06/14 09:01:09;;;;;;;7.57;1.52;;;;;;;-147.53;100.00;57128.34;10341067;28;20042;-76
2022/06/14 09:06:26;;;;;;;2.85;1.05;;;;;;;-147.53;100.00;57128.34;10347590;28;20050;-73
2022/06/14 09:11:31;;;;;;;10.63;1.52;;;;;;;-147.53;100.00;57128.34;10324566;28;20060;-73
2022/06/14 09:16:35;;;;;;;5.90;1.30;;;;;;;-147.53;100.00;57128.34;10323857;28;20052;-74
2022/06/14 09:21:45;;;;;;;10.73;2.22;;;;;;;-147.53;100.00;57128.34;10338972;28;20086;-74
2022/06/14 09:27:07;;;;;;;9.40;1.58;;;;;;;-147.53;100.00;57128.34;10334132;28;20528;-74
2022/06/14 09:38:16;;;;;;;6.63;1.30;;;;;;;-147.53;100.00;57128.34;10323851;28;20129;-74
2022/06/14 09:43:47;;;;;;;5.00;1.45;;;;;;;-147.53;100.00;57128.34;10310712;28;21297;-76
2022/06/14 09:49:17;;;;;;;4.97;1.17;;;;;;;-147.53;100.00;57128.34;10313846;28;20066;-75
2022/06/14 09:54:39;;;;;;;11.45;1.60;;;;;;;-147.53;100.00;57128.34;10305521;28;20121;-74
2022/06/14 10:00:19;;;;;;;5.15;1.10;;;;;;;-147.53;100.00;57128.34;10306450;28;20042;-75
2022/06/14 10:05:40;;;;;;;7.60;1.48;;;;;;;-147.53;100.00;57128.34;10304377;28;20453;-75
2022/06/14 10:11:01;;;;;;;6.65;1.27;;;;;;;-147.53;100.00;57128.34;10284451;28;20050;-74
2022/06/14 10:16:15;;;;;;;4.80;1.08;;;;;;;-147.53;100.00;57128.34;10313020;28;20042;-72
2022/06/14 10:21:22;;;;;;;7.32;1.33;;;;;;;-147.53;100.00;57128.34;10304252;28;20138;-74
2022/06/14 10:32:06;;;;;;;5.28;1.13;;;;;;;-147.53;100.00;57128.34;10304066;28;20046;-76
2022/06/14 10:37:11;;;;;;;3.83;1.10;;;;;;;-147.53;100.00;57128.34;10298637;28;20118;-75
2022/06/14 10:42:25;;;;;;;8.23;1.25;;;;;;;-147.53;100.00;57128.34;10312211;28;20046;-76
2022/06/14 10:47:45;;;;;;;6.53;1.33;;;;;;;-147.53;100.00;57128.34;10313406;28;20153;-74
2022/06/14 10:52:54;;;;;;;;;;;;;;;-147.53;100.00;57128.34;10302794;28;20133;-74
2022/06/14 10:58:25;;;;;;;3.88;1.13;;;;;;;-147.53;100.00;57128.34;10309333;28;20020;-73
2022/06/14 11:03:57;;;;;;;5.75;1.50;;;;;;;-147.53;100.00;57128.34;10311925;28;20445;-75
2022/06/14 11:09:08;;;;;;;5.38;1.48;;;;;;;-147.53;100.00;57128.34;10311525;28;20634;-74
2022/06/14 11:14:27;;;;;;;6.60;1.30;;;;;;;-147.53;100.00;57128.34;10307198;28;20046;-73
2022/06/14 11:19:58;;;;;;;3.83;1.10;;;;;;;-147.53;100.00;57128.34;10310934;28;20383;-74
2022/06/14 11:25:08;;;;;;;6.60;1.40;;;;;;;-147.53;100.00;57128.34;10313250;28;20565;-73
2022/06/14 11:30:18;;;;;;;7.05;1.08;;;;;;;-147.53;100.00;57128.34;10325179;28;20062;-74
2022/06/14 11:35:50;;;;;;;6.65;1.60;;;;;;;-147.53;100.00;57128.34;10317477;28;20058;-75
2022/06/14 11:40:59;;;;;;;4.60;1.00;;;;;;;-147.53;100.00;57128.34;10318073;28;20051;-74
2022/06/14 11:46:20;;;;;;;6.03;1.33;;;;;;;-147.53;100.00;57128.34;10324641;28;20043;-76
2022/06/14 11:51:32;;;;;;;5.07;1.10;;;;;;;-147.53;100.00;57128.34;10310527;28;20054;-73
2022/06/14 11:57:12;;;;;;;4.80;0.93;;;;;;;-147.53;100.00;57128.34;10315885;28;20516;-72
2022/06/14 12:02:40;;;;;;;7.05;1.15;;;;;;;-147.53;100.00;57128.34;10305142;28;20046;-72
2022/06/14 12:08:06;;;;;;;5.53;1.15;;;;;;;-147.53;100.00;57128.34;10323676;28;20046;-74
2022/06/14 12:13:45;;;;;;;6.40;1.40;;;;;;;-147.53;100.00;57128.34;10326193;28;20046;-73
2022/06/14 12:18:59;;;;;;;5.53;1.20;;;;;;;-147.53;100.00;57128.34;10309612;28;20046;-76
2022/06/14 12:24:10;;;;;;;4.68;1.20;;;;;;;-147.53;100.00;57128.34;10319983;28;20623;-74
2022/06/14 12:29:27;;;;;;;8.60;1.23;;;;;;;-147.53;100.00;57128.34;10332315;28;20084;-76
2022/06/14 12:34:54;;;;;;;4.70;1.10;;;;;;;-147.53;100.00;57128.34;10336172;28;20047;-74
2022/06/14 12:40:02;;;;;;;6.40;1.65;;;;;;;-147.53;100.00;57128.34;10324172;28;20046;-75
2022/06/14 12:45:19;;;;;;;9.82;1.30;;;;;;;-147.53;100.00;57128.34;10341388;28;20054;-76
2022/06/14 12:50:30;;;;;;;5.93;1.20;;;;;;;-147.53;100.00;57128.34;10315890;28;20050;-76
2022/06/14 12:55:49;;;;;;;5.47;1.27;;;;;;;-147.53;100.00;57128.34;10306776;28;20065;-74
2022/06/14 13:01:13;;;;;;;6.35;1.88;;;;;;;-147.53;100.00;57128.34;10327041;28;20775;-74
2022/06/14 13:07:03;;;;;;;5.95;0.98;;;;;;;-147.53;100.00;57128.34;10318241;28;20057;-74
2022/06/14 13:12:55;;;;;;;7.47;1.20;;;;;;;-147.53;100.00;57128.34;10319133;28;20144;-75
2022/06/14 13:17:59;;;;;;;6.28;1.30;;;;;;;-147.53;100.00;57128.34;10318732;28;20454;-74
2022/06/14 13:23:12;;;;;;;10.15;1.35;;;;;;;-147.53;100.00;57128.34;10322329;28;20073;-73
2022/06/14 13:28:32;;;;;;;7.93;1.67;;;;;;;-147.53;100.00;57128.34;10319088;28;20092;-74
2022/06/14 13:33:59;;;;;;;7.70;1.13;;;;;;;-147.53;100.00;57128.34;10312754;28;20225;-71
2022/06/14 13:39:38;;;;;;;7.85;1.30;;;;;;;-147.53;100.00;57128.34;10294651;28;20089;-72
2022/06/14 13:45:02;;;;;;;4.80;1.05;;;;;;;-147.53;100.00;57128.34;10283147;28;20054;-73
2022/06/14 13:50:29;;;;;;;7.10;1.10;;;;;;;-147.53;100.00;57128.34;10313011;28;20068;-72
2022/06/14 13:56:05;;;;;;;4.78;1.05;;;;;;;-147.53;100.00;57128.34;10320534;28;20057;-69
2022/06/14 14:01:13;;;;;;;5.47;1.10;;;;;;;-147.53;100.00;57128.34;10314585;28;20061;-69
2022/06/14 14:06:43;;;;;;;4.93;1.23;;;;;;;-147.53;100.00;57128.34;10301645;28;20046;-70
2022/06/14 14:12:03;;;;;;;;;;;;;;;-147.53;100.00;57128.34;10318656;28;20497;-69
2022/06/14 14:17:05;;;;;;;6.93;1.08;;;;;;;-147.53;100.00;57128.34;10317726;28;19921;-71
2022/06/14 14:22:15;;;;;;;4.80;1.00;;;;;;;-147.53;100.00;57128.34;10316571;28;20050;-70
2022/06/14 14:27:34;;;;;;;3.13;1.10;;;;;;;-147.53;100.00;57128.34;10317245;28;20046;-70
2022/06/14 14:33:04;;;;;;;6.50;1.50;;;;;;;-147.53;100.00;57128.34;10316594;28;20438;-70
2022/06/14 14:38:12;;;;;;;10.98;1.50;;;;;;;-147.53;100.00;57128.34;10316585;28;20125;-70
2022/06/14 14:43:22;;;;;;;7.35;1.40;;;;;;;-147.53;100.00;57128.34;10316509;28;20058;-70
2022/06/14 14:48:45;;;;;;;7.22;1.30;;;;;;;-147.53;100.00;57128.34;10310775;28;20677;-74
2022/06/14 14:54:02;;;;;;;6.53;1.35;;;;;;;-147.53;100.00;57128.34;10330626;28;20506;-73
2022/06/14 14:59:39;;;;;;;12.18;1.90;;;;;;;-147.53;100.00;57128.34;10332596;28;20046;-74
2022/06/14 15:10:20;;;;;;;7.15;1.50;;;;;;;-147.53;100.00;57128.34;10316431;28;20046;-75
2022/06/14 15:15:35;;;;;;;10.30;1.50;;;;;;;-147.53;100.00;57128.34;10316854;28;20105;-73
2022/06/14 15:20:47;;;;;;;5.32;1.30;;;;;;;-147.53;100.00;57128.34;10316295;28;20043;-73
2022/06/14 15:25:49;;;;;;;3.35;1.13;;;;;;;-147.53;100.00;57128.34;10316127;28;20054;-73
2022/06/14 15:30:54;;;;;;;9.20;1.50;;;;;;;-147.53;100.00;57128.34;10322218;28;20458;-74
2022/06/14 15:36:29;;;;;;;8.52;1.30;;;;;;;-147.53;100.00;57128.34;10322685;28;20046;-75
2022/06/14 15:41:35;;;;;;;5.72;1.20;;;;;;;-147.53;100.00;57128.34;10271594;28;20104;-74
2022/06/14 15:47:01;;;;;;;5.88;1.30;;;;;;;-147.53;100.00;57128.34;10315802;28;20050;-74
2022/06/14 15:52:26;;;;;;;8.50;1.75;;;;;;;-147.53;100.00;57128.34;10315156;28;20601;-74
2022/06/14 15:57:32;;;;;;;7.10;1.45;;;;;;;-147.53;100.00;57128.34;10322816;28;20057;-75
2022/06/14 16:02:39;;;;;;;10.90;1.50;;;;;;;-147.53;100.00;57128.34;10313941;28;20137;-77
2022/06/14 16:08:05;;;;;;;4.32;1.33;;;;;;;-147.53;100.00;57128.34;10331726;28;20129;-76
2022/06/14 16:13:20;;;;;;;9.65;1.90;;;;;;;-147.53;100.00;57128.34;10324330;28;20070;-76
2022/06/14 16:18:34;;;;;;;9.50;1.63;;;;;;;-147.53;100.00;57128.34;10325984;28;20053;-75
2022/06/14 16:23:37;;;;;;;5.70;1.75;;;;;;;-147.53;100.00;57128.34;10327603;28;20054;-77
2022/06/14 16:28:51;;;;;;;13.02;1.75;;;;;;;-147.53;100.00;57128.34;10340773;28;20058;-77
2022/06/14 16:34:04;;;;;;;5.35;1.42;;;;;;;-147.53;100.00;57128.34;10331308;28;20045;-76
2022/06/14 16:39:18;;;;;;;6.90;1.92;;;;;;;-147.53;100.00;57128.34;10343181;28;20077;-76
2022/06/14 16:44:25;;;;;;;7.45;1.58;;;;;;;-147.53;100.00;57128.34;10341231;28;20045;-76
2022/06/14 16:49:43;;;;;;;6.90;1.50;;;;;;;-147.53;100.00;57128.34;10340907;28;20101;-73
2022/06/14 16:55:05;;;;;;;5.75;1.25;;;;;;;-147.53;100.00;57128.34;10320003;28;20133;-73
2022/06/14 17:00:13;;;;;;;8.70;1.77;;;;;;;-147.53;100.00;57128.34;10327533;28;20707;-70
2022/06/14 17:05:28;;;;;;;8.00;3.58;;;;;;;-147.53;100.00;57128.34;10328083;28;20052;-72
2022/06/14 17:10:41;;;;;;;7.10;1.60;;;;;;;-147.53;100.00;57128.34;10337397;28;20049;-71
2022/06/14 17:15:55;;;;;;;6.20;1.55;;;;;;;-147.53;100.00;57128.34;10329393;28;20046;-72
2022/06/14 17:21:13;;;;;;;8.98;1.50;;;;;;;-147.53;100.00;57128.34;10314517;28;20054;-72
2022/06/14 17:31:50;;;;;;;6.95;1.27;;;;;;;-147.53;100.00;57128.34;10299194;28;20050;-73
2022/06/14 17:37:09;;;;;;;6.03;1.30;;;;;;;-147.53;100.00;57128.34;10253255;28;20050;-73
2022/06/14 17:42:16;;;;;;;5.53;1.30;;;;;;;-147.53;100.00;57128.34;10316881;28;20144;-71
2022/06/14 17:47:19;;;;;;;7.45;1.50;;;;;;;-147.53;100.00;57128.34;10331793;28;20046;-72
2022/06/14 17:52:26;;;;;;;6.18;1.40;;;;;;;-147.53;100.00;57128.34;10336163;28;20057;-73
2022/06/14 17:57:49;;;;;;;7.38;1.40;;;;;;;-147.53;100.00;57128.34;10349953;28;20501;-72
2022/06/14 18:03:00;;;;;;;7.13;1.75;;;;;;;-147.53;100.00;57128.34;10317021;28;20050;-74
2022/06/14 18:08:31;;;;;;;8.18;1.40;;;;;;;-147.53;100.00;57128.34;10318422;28;20061;-72
2022/06/14 18:13:50;;;;;;;10.13;2.13;;;;;;;-147.53;100.00;57128.34;10291043;28;20148;-73
2022/06/14 18:18:57;;;;;;;;;;;;;;;-147.53;100.00;57128.34;10320820;28;20045;-72
2022/06/14 18:24:03;;;;;;;6.85;1.20;;;;;;;-147.53;100.00;57128.34;10299275;28;19922;-73
2022/06/14 18:29:28;;;;;;;7.45;1.52;;;;;;;-147.53;100.00;57128.34;10326807;28;20053;-72
2022/06/14 18:34:39;;;;;;;7.45;1.40;;;;;;;-147.53;100.00;57128.34;10316092;28;20066;-73
2022/06/14 18:39:43;;;;;;;9.15;1.50;;;;;;;-147.53;100.00;57128.34;10308342;28;20050;-72
2022/06/14 18:44:45;;;;;;;8.20;1.48;;;;;;;-147.53;100.00;57128.34;10308190;28;20422;-72
2022/06/14 18:49:53;;;;;;;7.63;1.48;;;;;;;-147.53;100.00;57128.34;10323097;28;20631;-72
2022/06/14 18:55:16;;;;;;;6.10;1.50;;;;;;;-147.53;100.00;57128.34;10317905;28;20046;-72
2022/06/14 19:00:34;;;;;;;7.15;1.45;;;;;;;-147.53;100.00;57128.34;10310349;28;20058;-73
2022/06/14 19:05:46;;;;;;;4.13;1.20;;;;;;;-147.53;100.00;57128.34;10313012;28;20108;-71
2022/06/14 19:10:54;;;;;;;5.03;1.55;;;;;;;-147.53;100.00;57128.34;10314346;28;20611;-73
2022/06/14 19:16:17;;;;;;;7.05;1.48;;;;;;;-147.53;100.00;57128.34;10311933;28;20141;-72
2022/06/14 19:21:39;;;;;;;5.40;1.50;;;;;;;-147.53;100.00;57128.34;10320376;28;20046;-73
2022/06/14 19:26:51;;;;;;;7.05;1.40;;;;;;;-147.53;100.00;57128.34;10324554;28;20052;-72
2022/06/14 19:32:05;;;;;;;5.75;1.35;;;;;;;-147.53;100.00;57128.34;10323385;28;20050;-72
2022/06/14 19:37:21;;;;;;;9.00;1.67;;;;;;;-147.53;100.00;57128.34;10319827;28;20440;-72
2022/06/14 19:42:30;;;;;;;;;;;;;;;-147.53;100.00;57128.34;10321748;28;20046;-72
2022/06/14 19:47:47;;;;;;;11.18;1.70;;;;;;;-147.53;100.00;57128.34;10323663;28;20464;-72
2022/06/14 19:52:55;;;;;;;5.60;1.55;;;;;;;-147.53;100.00;57128.34;10314169;28;20394;-72
2022/06/14 19:58:10;;;;;;;4.97;1.30;;;;;;;-147.53;100.00;57128.34;10324008;28;20153;-72
2022/06/14 20:03:29;;;;;;;6.05;1.67;;;;;;;-147.53;100.00;57128.34;10322708;28;20501;-72
2022/06/14 20:08:38;;;;;;;5.78;1.50;;;;;;;-147.53;100.00;57128.34;10315715;28;20096;-72
2022/06/14 20:13:40;;;;;;;7.25;2.00;;;;;;;-147.53;100.00;57128.34;10313599;28;20042;-73
2022/06/14 20:19:05;;;;;;;6.97;1.80;;;;;;;-147.53;100.00;57128.34;10320833;28;20137;-73
2022/06/14 20:24:11;;;;;;;4.95;1.67;;;;;;;-147.53;100.00;57128.34;10330405;28;20041;-73
2022/06/14 20:29:26;;;;;;;5.70;1.75;;;;;;;-147.53;100.00;57128.34;10316592;28;20050;-72
2022/06/14 20:34:30;;;;;;;6.75;2.05;;;;;;;-147.53;100.00;57128.34;10320870;28;20046;-73
2022/06/14 20:39:33;;;;;;;8.05;2.08;;;;;;;-147.53;100.00;57128.34;10323947;28;20080;-74
2022/06/14 20:44:40;;;;;;;7.18;2.00;;;;;;;-147.53;100.00;57128.34;10327356;28;20580;-73
2022/06/14 20:49:43;;;;;;;9.00;2.30;;;;;;;-147.53;100.00;57128.34;10320885;28;20405;-73
2022/06/14 20:54:56;;;;;;;6.75;2.13;;;;;;;-147.53;100.00;57128.34;10323633;28;20673;-73
2022/06/14 20:59:58;;;;;;;8.65;2.00;;;;;;;-147.53;100.00;57128.34;10319544;28;20054;-73
2022/06/14 21:05:01;;;;;;;10.75;1.98;;;;;;;-147.53;100.00;57128.34;10321488;28;20046;-73
2022/06/14 21:11:21;;;;;;;6.53;2.05;;;;;;;-147.53;100.00;57128.34;10306513;28;20046;-73
2022/06/14 21:15:33;;;;;;;12.63;2.85;;;;;;;-147.53;100.00;57128.34;10320317;28;20069;-73
2022/06/14 21:20:55;;;;;;;9.68;3.13;;;;;;;-147.53;100.00;57128.34;10319663;28;20070;-72
2022/06/14 21:26:16;;;;;;;9.93;2.80;;;;;;;-147.53;100.00;57128.34;10318644;28;20297;-73
2022/06/14 21:31:27;;;;;;;6.93;2.30;;;;;;;-147.53;100.00;57128.34;10311937;28;20081;-73
2022/06/14 21:36:40;;;;;;;7.72;2.45;;;;;;;-147.53;100.00;57128.34;10320338;28;20069;-73
2022/06/14 21:41:54;;;;;;;7.90;2.08;;;;;;;-147.53;100.00;57128.34;10319132;28;20509;-71
2022/06/14 21:47:00;;;;;;;7.97;2.30;;;;;;;-147.53;100.00;57128.34;10320310;28;20414;-73
2022/06/14 21:52:02;;;;;;;5.50;2.25;;;;;;;-147.53;100.00;57128.34;10301042;28;20058;-73
2022/06/14 21:57:07;;;;;;;5.78;2.38;;;;;;;-147.53;100.00;57128.34;10318588;28;20054;-73
2022/06/14 22:02:17;;;;;;;7.38;3.03;;;;;;;-147.53;100.00;57128.34;10318628;28;20506;-72
2022/06/14 22:07:18;;;;;;;8.63;2.63;;;;;;;-147.53;100.00;57128.34;10313067;28;20478;-72
2022/06/14 22:12:26;;;;;;;7.43;2.58;;;;;;;-147.53;100.00;57128.34;10318196;28;20499;-72
2022/06/14 22:17:27;;;;;;;8.18;2.30;;;;;;;-147.53;100.00;57128.34;10325432;28;20093;-73
2022/06/14 22:22:29;;;;;;;9.52;2.45;;;;;;;-147.53;100.00;57128.34;10299047;28;20150;-72
2022/06/14 22:27:36;;;;;;;6.43;2.65;;;;;;;-147.53;100.00;57128.34;10318577;28;20534;-73
2022/06/14 22:32:37;;;;;;;10.30;2.78;;;;;;;-147.53;100.00;57128.34;10316873;28;20149;-71
2022/06/14 22:37:40;;;;;;;10.63;3.00;;;;;;;-147.53;100.00;57128.34;10318716;28;20137;-72
2022/06/14 22:42:44;;;;;;;6.53;2.42;;;;;;;-147.53;100.00;57128.34;10316359;28;20054;-72
2022/06/14 22:47:46;;;;;;;6.63;2.85;;;;;;;-147.53;100.00;57128.34;10317256;28;20108;-72
2022/06/14 22:52:48;;;;;;;7.18;2.38;;;;;;;-147.53;100.00;57128.34;10312464;28;20038;-73
2022/06/14 22:58:03;;;;;;;6.93;2.55;;;;;;;-147.53;100.00;57128.34;10318090;28;20130;-71
2022/06/14 23:03:04;;;;;;;5.97;2.38;;;;;;;-147.53;100.00;57128.34;10309955;28;20137;-73
2022/06/14 23:08:06;;;;;;;7.05;2.33;;;;;;;-147.53;100.00;57128.34;10316825;28;20152;-72
2022/06/14 23:13:08;;;;;;;6.85;2.60;;;;;;;-147.53;100.00;57128.34;10316214;28;20133;-72
2022/06/14 23:18:09;;;;;;;5.80;2.75;;;;;;;-147.53;100.00;57128.34;10316828;28;20145;-73
2022/06/14 23:23:11;;;;;;;4.57;2.33;;;;;;;-147.53;100.00;57128.34;10317421;28;20042;-71
2022/06/14 23:28:12;;;;;;;9.40;2.50;;;;;;;-147.53;100.00;57128.34;10318161;28;20042;-73
2022/06/14 23:33:14;;;;;;;8.52;2.63;;;;;;;-147.53;100.00;57128.34;10316822;28;20897;-72
2022/06/14 23:38:15;;;;;;;9.45;2.75;;;;;;;-147.53;100.00;57128.34;10317032;28;20133;-72
2022/06/14 23:43:17;;;;;;;7.43;2.50;;;;;;;-147.53;100.00;57128.34;10298907;28;20686;-72
2022/06/14 23:48:20;;;;;;;8.30;2.80;;;;;;;-147.53;100.00;57128.34;10316254;28;20051;-72
2022/06/14 23:53:22;;;;;;;5.93;2.35;;;;;;;-147.53;100.00;57128.34;10319642;28;20054;-72
2022/06/14 23:58:25;;;;;;;6.63;2.67;;;;;;;-147.53;100.00;57128.34;10320824;28;20129;-72
